Bridgehampton, New York
Current Conditions -  °F | °C
As of 2:53 PM on Saturday 25 Oct 2014 (Local Time) from KFOK Reporting Station
Clear Clear  
Wind Chill: 19°   Ceiling: Unl
Heat Index: 19°   Visibility: 10mi
Dew Point:   Wind: 12mph
Humidity: 43%   Direction: 290°WNW
Pressure: 29.7"   Gusts: NA
Location:  40.94°N, 72.3°W
Report Text: KFOK 251853Z 29010KT 10SM CLR 19/06 A2970 RMK AO2 SLP056 T01890061
Loading
Personal Weather Stations






























Interactive Weather Map
Tropical Storm Tracking
New forecast layout! Learn more

10-Day Weather Forecast

Advertisements
Track Severe Weather on mobile